sensor_id;sensor_type;location;lat;lon;timestamp;pressure;altitude;pressure_sealevel;temperature;humidity
47785;BME280;35233;55.686;37.848;2023-05-25T00:00:10;99786.56;;;19.82;56.32
47785;BME280;35233;55.686;37.848;2023-05-25T00:02:37;99778.81;;;19.77;56.13
47785;BME280;35233;55.686;37.848;2023-05-25T00:05:12;99787.50;;;19.81;56.51
47785;BME280;35233;55.686;37.848;2023-05-25T00:07:38;99773.44;;;19.77;56.36
47785;BME280;35233;55.686;37.848;2023-05-25T00:10:05;99781.19;;;19.82;56.03
47785;BME280;35233;55.686;37.848;2023-05-25T00:12:31;99772.38;;;19.80;56.24
47785;BME280;35233;55.686;37.848;2023-05-25T00:14:57;99781.41;;;19.79;56.32
47785;BME280;35233;55.686;37.848;2023-05-25T00:17:22;99774.28;;;19.78;56.36
47785;BME280;35233;55.686;37.848;2023-05-25T00:19:48;99772.50;;;19.78;56.62
47785;BME280;35233;55.686;37.848;2023-05-25T00:22:14;99784.16;;;19.77;56.20
47785;BME280;35233;55.686;37.848;2023-05-25T00:24:39;99776.22;;;19.76;56.29
47785;BME280;35233;55.686;37.848;2023-05-25T00:27:05;99765.41;;;19.77;56.55
47785;BME280;35233;55.686;37.848;2023-05-25T00:29:34;99760.44;;;19.71;56.47
47785;BME280;35233;55.686;37.848;2023-05-25T00:32:00;99764.09;;;19.70;56.23
47785;BME280;35233;55.686;37.848;2023-05-25T00:34:33;99757.97;;;19.68;56.34
47785;BME280;35233;55.686;37.848;2023-05-25T00:36:58;99769.13;;;19.75;56.42
47785;BME280;35233;55.686;37.848;2023-05-25T00:39:24;99757.88;;;19.70;56.72
47785;BME280;35233;55.686;37.848;2023-05-25T00:41:49;99772.78;;;19.74;56.56
47785;BME280;35233;55.686;37.848;2023-05-25T00:44:15;99762.06;;;19.74;56.21
47785;BME280;35233;55.686;37.848;2023-05-25T00:46:51;99756.25;;;19.67;56.19
47785;BME280;35233;55.686;37.848;2023-05-25T00:49:18;99747.22;;;19.68;56.39
47785;BME280;35233;55.686;37.848;2023-05-25T00:51:45;99755.28;;;19.68;56.68
47785;BME280;35233;55.686;37.848;2023-05-25T00:54:14;99745.53;;;19.67;56.45
47785;BME280;35233;55.686;37.848;2023-05-25T00:56:43;99743.78;;;19.66;56.25
47785;BME280;35233;55.686;37.848;2023-05-25T00:59:15;99747.22;;;19.68;56.51
47785;BME280;35233;55.686;37.848;2023-05-25T01:01:43;99743.69;;;19.67;56.51
47785;BME280;35233;55.686;37.848;2023-05-25T01:04:12;99732.00;;;19.68;56.70
47785;BME280;35233;55.686;37.848;2023-05-25T01:06:46;99726.06;;;19.63;56.21
47785;BME280;35233;55.686;37.848;2023-05-25T01:09:16;99700.63;;;19.56;56.23
47785;BME280;35233;55.686;37.848;2023-05-25T01:11:48;99717.06;;;19.64;56.23
47785;BME280;35233;55.686;37.848;2023-05-25T01:14:18;99711.91;;;19.61;56.49
47785;BME280;35233;55.686;37.848;2023-05-25T01:16:48;99717.06;;;19.64;56.40
47785;BME280;35233;55.686;37.848;2023-05-25T01:19:15;99727.69;;;19.66;56.40
47785;BME280;35233;55.686;37.848;2023-05-25T01:21:48;99731.34;;;19.65;56.58
47785;BME280;35233;55.686;37.848;2023-05-25T01:24:43;99742.06;;;19.65;56.58
47785;BME280;35233;55.686;37.848;2023-05-25T01:27:51;99723.31;;;19.65;56.19
47785;BME280;35233;55.686;37.848;2023-05-25T01:30:19;99717.16;;;19.63;56.38
47785;BME280;35233;55.686;37.848;2023-05-25T01:32:48;99734.97;;;19.64;56.39
47785;BME280;35233;55.686;37.848;2023-05-25T01:35:13;99735.66;;;19.67;56.52
47785;BME280;35233;55.686;37.848;2023-05-25T01:37:44;99729.44;;;19.67;56.35
47785;BME280;35233;55.686;37.848;2023-05-25T01:40:12;99728.47;;;19.68;56.04
47785;BME280;35233;55.686;37.848;2023-05-25T01:42:40;99723.97;;;19.68;56.27
47785;BME280;35233;55.686;37.848;2023-05-25T01:45:09;99727.50;;;19.69;56.13
47785;BME280;35233;55.686;37.848;2023-05-25T01:47:52;99737.16;;;19.72;56.21
47785;BME280;35233;55.686;37.848;2023-05-25T01:53:02;99736.13;;;19.74;56.10
47785;BME280;35233;55.686;37.848;2023-05-25T01:55:31;99743.31;;;19.74;56.30
47785;BME280;35233;55.686;37.848;2023-05-25T01:57:59;99738.50;;;19.79;56.09
47785;BME280;35233;55.686;37.848;2023-05-25T02:00:28;99741.94;;;19.81;56.00
47785;BME280;35233;55.686;37.848;2023-05-25T02:03:01;99742.03;;;19.79;55.89
47785;BME280;35233;55.686;37.848;2023-05-25T02:05:26;99730.75;;;19.74;56.25
47785;BME280;35233;55.686;37.848;2023-05-25T02:07:52;99734.00;;;19.79;56.00
47785;BME280;35233;55.686;37.848;2023-05-25T02:10:18;99747.41;;;19.79;55.91
47785;BME280;35233;55.686;37.848;2023-05-25T02:12:47;99746.75;;;19.76;55.85
47785;BME280;35233;55.686;37.848;2023-05-25T02:15:14;99750.66;;;19.84;56.05
47785;BME280;35233;55.686;37.848;2023-05-25T02:17:39;99751.91;;;19.79;55.85
47785;BME280;35233;55.686;37.848;2023-05-25T02:20:06;99759.34;;;19.88;55.80
47785;BME280;35233;55.686;37.848;2023-05-25T02:22:32;99748.81;;;19.85;55.56
47785;BME280;35233;55.686;37.848;2023-05-25T02:24:58;99760.84;;;19.92;55.84
47785;BME280;35233;55.686;37.848;2023-05-25T02:27:23;99765.28;;;19.93;56.02
47785;BME280;35233;55.686;37.848;2023-05-25T02:29:49;99758.09;;;19.94;55.67
47785;BME280;35233;55.686;37.848;2023-05-25T02:32:14;99757.03;;;19.96;55.85
47785;BME280;35233;55.686;37.848;2023-05-25T02:34:46;99764.97;;;19.98;55.46
47785;BME280;35233;55.686;37.848;2023-05-25T02:37:12;99760.66;;;19.95;55.58
47785;BME280;35233;55.686;37.848;2023-05-25T02:39:38;99767.34;;;20.02;55.16
47785;BME280;35233;55.686;37.848;2023-05-25T02:42:04;99761.13;;;20.02;55.49
47785;BME280;35233;55.686;37.848;2023-05-25T02:44:39;99753.38;;;19.97;55.13
47785;BME280;35233;55.686;37.848;2023-05-25T02:47:05;99731.78;;;19.86;55.27
47785;BME280;35233;55.686;37.848;2023-05-25T02:49:31;99747.53;;;20.05;55.48
47785;BME280;35233;55.686;37.848;2023-05-25T02:51:58;99752.69;;;20.08;55.11
47785;BME280;35233;55.686;37.848;2023-05-25T02:54:24;99762.25;;;20.12;55.10
47785;BME280;35233;55.686;37.848;2023-05-25T02:56:49;99774.38;;;20.18;55.04
47785;BME280;35233;55.686;37.848;2023-05-25T02:59:15;99772.56;;;20.18;55.25
47785;BME280;35233;55.686;37.848;2023-05-25T03:01:41;99756.88;;;20.12;55.11
47785;BME280;35233;55.686;37.848;2023-05-25T03:04:06;99775.25;;;20.18;54.92
47785;BME280;35233;55.686;37.848;2023-05-25T03:06:32;99775.16;;;20.20;55.03
47785;BME280;35233;55.686;37.848;2023-05-25T03:08:57;99777.72;;;20.21;54.83
47785;BME280;35233;55.686;37.848;2023-05-25T03:11:23;99772.34;;;20.21;55.09
47785;BME280;35233;55.686;37.848;2023-05-25T03:13:50;99776.56;;;20.25;54.90
47785;BME280;35233;55.686;37.848;2023-05-25T03:16:15;99772.91;;;20.26;55.22
47785;BME280;35233;55.686;37.848;2023-05-25T03:18:41;99771.56;;;20.33;54.66
47785;BME280;35233;55.686;37.848;2023-05-25T03:21:06;99772.09;;;20.39;54.78
47785;BME280;35233;55.686;37.848;2023-05-25T03:23:32;99770.38;;;20.38;54.23
47785;BME280;35233;55.686;37.848;2023-05-25T03:25:57;99778.88;;;20.44;54.67
47785;BME280;35233;55.686;37.848;2023-05-25T03:28:23;99779.00;;;20.43;54.51
47785;BME280;35233;55.686;37.848;2023-05-25T03:30:48;99785.97;;;20.45;54.13
47785;BME280;35233;55.686;37.848;2023-05-25T03:33:14;99784.72;;;20.51;54.63
47785;BME280;35233;55.686;37.848;2023-05-25T03:35:39;99773.22;;;20.49;54.32
47785;BME280;35233;55.686;37.848;2023-05-25T03:38:05;99778.75;;;20.60;54.12
47785;BME280;35233;55.686;37.848;2023-05-25T03:40:30;99774.13;;;20.62;54.48
47785;BME280;35233;55.686;37.848;2023-05-25T03:42:55;99781.00;;;20.66;53.66
47785;BME280;35233;55.686;37.848;2023-05-25T03:45:21;99781.00;;;20.66;54.27
47785;BME280;35233;55.686;37.848;2023-05-25T03:47:46;99785.09;;;20.72;53.76
47785;BME280;35233;55.686;37.848;2023-05-25T03:50:12;99767.25;;;20.71;54.30
47785;BME280;35233;55.686;37.848;2023-05-25T03:52:37;99760.94;;;20.72;53.65
47785;BME280;35233;55.686;37.848;2023-05-25T03:55:04;99765.03;;;20.77;53.57
47785;BME280;35233;55.686;37.848;2023-05-25T03:57:30;99768.16;;;20.84;54.09
47785;BME280;35233;55.686;37.848;2023-05-25T03:59:55;99753.09;;;20.82;54.05
47785;BME280;35233;55.686;37.848;2023-05-25T04:02:21;99752.69;;;20.88;53.91
47785;BME280;35233;55.686;37.848;2023-05-25T04:04:46;99744.53;;;20.89;53.78
47785;BME280;35233;55.686;37.848;2023-05-25T04:07:17;99755.81;;;20.94;53.88
47785;BME280;35233;55.686;37.848;2023-05-25T04:09:42;99746.56;;;20.98;53.08
47785;BME280;35233;55.686;37.848;2023-05-25T04:12:08;99758.38;;;20.96;53.07
47785;BME280;35233;55.686;37.848;2023-05-25T04:14:35;99739.59;;;20.96;53.18
47785;BME280;35233;55.686;37.848;2023-05-25T04:17:00;99742.91;;;20.99;53.14
47785;BME280;35233;55.686;37.848;2023-05-25T04:19:26;99745.28;;;21.04;53.52
47785;BME280;35233;55.686;37.848;2023-05-25T04:21:51;99745.81;;;21.09;53.20
47785;BME280;35233;55.686;37.848;2023-05-25T04:24:16;99734.75;;;21.14;53.28
47785;BME280;35233;55.686;37.848;2023-05-25T04:26:42;99749.69;;;21.18;52.83
47785;BME280;35233;55.686;37.848;2023-05-25T04:29:10;99751.09;;;21.23;52.55
47785;BME280;35233;55.686;37.848;2023-05-25T04:31:36;99748.91;;;21.29;52.47
47785;BME280;35233;55.686;37.848;2023-05-25T04:34:03;99749.16;;;21.38;52.29
47785;BME280;35233;55.686;37.848;2023-05-25T04:36:28;99699.94;;;21.12;52.38
47785;BME280;35233;55.686;37.848;2023-05-25T04:38:57;99757.41;;;21.48;52.40
47785;BME280;35233;55.686;37.848;2023-05-25T04:41:27;99759.25;;;21.47;52.13
47785;BME280;35233;55.686;37.848;2023-05-25T04:43:54;99761.31;;;21.44;51.94
47785;BME280;35233;55.686;37.848;2023-05-25T04:46:20;99744.66;;;21.39;52.35
47785;BME280;35233;55.686;37.848;2023-05-25T04:48:45;99750.66;;;21.42;52.69
47785;BME280;35233;55.686;37.848;2023-05-25T04:51:11;99733.44;;;21.32;52.63
47785;BME280;35233;55.686;37.848;2023-05-25T04:53:36;99743.09;;;21.35;52.56
47785;BME280;35233;55.686;37.848;2023-05-25T04:56:02;99733.63;;;21.29;52.89
47785;BME280;35233;55.686;37.848;2023-05-25T04:58:28;99750.75;;;21.41;52.20
47785;BME280;35233;55.686;37.848;2023-05-25T05:00:54;99743.44;;;21.43;52.41
47785;BME280;35233;55.686;37.848;2023-05-25T05:03:20;99744.50;;;21.53;52.24
47785;BME280;35233;55.686;37.848;2023-05-25T05:05:46;99754.81;;;21.59;52.18
47785;BME280;35233;55.686;37.848;2023-05-25T05:08:14;99749.31;;;21.61;52.40
47785;BME280;35233;55.686;37.848;2023-05-25T05:10:40;99744.06;;;21.59;52.50
47785;BME280;35233;55.686;37.848;2023-05-25T05:13:05;99749.75;;;21.55;52.15
47785;BME280;35233;55.686;37.848;2023-05-25T05:15:32;99751.38;;;21.57;52.29
47785;BME280;35233;55.686;37.848;2023-05-25T05:17:58;99749.88;;;21.53;52.30
47785;BME280;35233;55.686;37.848;2023-05-25T05:20:23;99747.66;;;21.47;52.70
47785;BME280;35233;55.686;37.848;2023-05-25T05:22:49;99752.78;;;21.50;52.29
47785;BME280;35233;55.686;37.848;2023-05-25T05:25:14;99740.31;;;21.49;52.75
47785;BME280;35233;55.686;37.848;2023-05-25T05:27:40;99751.72;;;21.53;52.36
47785;BME280;35233;55.686;37.848;2023-05-25T05:30:05;99752.78;;;21.50;52.68
47785;BME280;35233;55.686;37.848;2023-05-25T05:32:32;99745.69;;;21.49;52.58
47785;BME280;35233;55.686;37.848;2023-05-25T05:34:57;99728.81;;;21.34;52.83
47785;BME280;35233;55.686;37.848;2023-05-25T05:37:23;99746.34;;;21.40;52.25
47785;BME280;35233;55.686;37.848;2023-05-25T05:39:48;99746.56;;;21.37;52.95
47785;BME280;35233;55.686;37.848;2023-05-25T05:42:16;99746.47;;;21.38;52.86
47785;BME280;35233;55.686;37.848;2023-05-25T05:44:42;99743.09;;;21.35;52.80
47785;BME280;35233;55.686;37.848;2023-05-25T05:47:07;99746.75;;;21.34;53.02
47785;BME280;35233;55.686;37.848;2023-05-25T05:49:33;99737.66;;;21.23;53.14
47785;BME280;35233;55.686;37.848;2023-05-25T05:51:58;99748.19;;;21.27;52.63
47785;BME280;35233;55.686;37.848;2023-05-25T05:54:24;99755.34;;;21.26;52.93
47785;BME280;35233;55.686;37.848;2023-05-25T05:56:51;99750.88;;;21.27;52.73
47785;BME280;35233;55.686;37.848;2023-05-25T05:59:17;99742.91;;;21.25;53.25
47785;BME280;35233;55.686;37.848;2023-05-25T06:01:43;99747.41;;;21.24;53.41
47785;BME280;35233;55.686;37.848;2023-05-25T06:04:20;99742.25;;;21.21;53.00
47785;BME280;35233;55.686;37.848;2023-05-25T06:06:49;99749.34;;;21.22;53.25
47785;BME280;35233;55.686;37.848;2023-05-25T06:09:15;99748.41;;;21.23;53.38
47785;BME280;35233;55.686;37.848;2023-05-25T06:11:40;99748.81;;;21.17;52.81
47785;BME280;35233;55.686;37.848;2023-05-25T06:16:50;99748.81;;;21.17;53.36
47785;BME280;35233;55.686;37.848;2023-05-25T06:19:16;99753.44;;;21.15;53.45
47785;BME280;35233;55.686;37.848;2023-05-25T06:21:41;99758.59;;;21.18;53.43
47785;BME280;35233;55.686;37.848;2023-05-25T06:24:25;99762.16;;;21.19;53.15
47785;BME280;35233;55.686;37.848;2023-05-25T06:26:51;99764.84;;;21.19;53.12
47785;BME280;35233;55.686;37.848;2023-05-25T06:29:16;99765.03;;;21.16;53.51
47785;BME280;35233;55.686;37.848;2023-05-25T06:31:42;99777.09;;;21.10;53.53
47785;BME280;35233;55.686;37.848;2023-05-25T06:34:07;99779.97;;;21.07;53.39
47785;BME280;35233;55.686;37.848;2023-05-25T06:36:33;99765.56;;;21.08;53.48
47785;BME280;35233;55.686;37.848;2023-05-25T06:38:58;99761.06;;;21.09;53.20
47785;BME280;35233;55.686;37.848;2023-05-25T06:41:24;99765.13;;;21.14;53.22
47785;BME280;35233;55.686;37.848;2023-05-25T06:43:50;99770.84;;;21.22;53.10
47785;BME280;35233;55.686;37.848;2023-05-25T06:46:15;99775.06;;;21.27;52.96
47785;BME280;35233;55.686;37.848;2023-05-25T06:48:42;99757.94;;;21.28;52.76
47785;BME280;35233;55.686;37.848;2023-05-25T06:51:08;99772.66;;;21.35;52.74
47785;BME280;35233;55.686;37.848;2023-05-25T06:59:02;99765.47;;;21.35;53.11
47785;BME280;35233;55.686;37.848;2023-05-25T07:01:27;99765.69;;;21.32;52.92
47785;BME280;35233;55.686;37.848;2023-05-25T07:03:53;99763.88;;;21.33;53.06
47785;BME280;35233;55.686;37.848;2023-05-25T07:06:19;99769.44;;;21.30;52.91
47785;BME280;35233;55.686;37.848;2023-05-25T07:08:45;99760.84;;;21.24;53.21
47785;BME280;35233;55.686;37.848;2023-05-25T07:11:13;99768.91;;;21.24;52.66
47785;BME280;35233;55.686;37.848;2023-05-25T07:13:39;99772.66;;;21.22;52.84
47785;BME280;35233;55.686;37.848;2023-05-25T07:16:05;99759.56;;;21.17;53.24
47785;BME280;35233;55.686;37.848;2023-05-25T07:18:30;99769.34;;;21.18;53.17
47785;BME280;35233;55.686;37.848;2023-05-25T07:20:56;99766.03;;;21.15;53.70
47785;BME280;35233;55.686;37.848;2023-05-25T07:23:22;99765.03;;;21.16;53.08
47785;BME280;35233;55.686;37.848;2023-05-25T07:25:47;99768.91;;;21.12;53.59
47785;BME280;35233;55.686;37.848;2023-05-25T07:28:14;99766.97;;;21.14;53.65
47785;BME280;35233;55.686;37.848;2023-05-25T07:30:39;99776.09;;;21.11;53.76
47785;BME280;35233;55.686;37.848;2023-05-25T07:33:05;99772.47;;;21.12;53.75
47785;BME280;35233;55.686;37.848;2023-05-25T07:35:31;99777.94;;;21.11;53.34
47785;BME280;35233;55.686;37.848;2023-05-25T07:38:01;99772.56;;;21.11;53.78
47785;BME280;35233;55.686;37.848;2023-05-25T07:40:28;99768.16;;;21.10;53.91
47785;BME280;35233;55.686;37.848;2023-05-25T07:42:54;99759.47;;;21.06;53.66
47785;BME280;35233;55.686;37.848;2023-05-25T07:45:20;99759.97;;;21.11;53.59
47785;BME280;35233;55.686;37.848;2023-05-25T07:47:46;99766.97;;;21.14;53.47
47785;BME280;35233;55.686;37.848;2023-05-25T07:50:13;99757.00;;;21.16;53.50
47785;BME280;35233;55.686;37.848;2023-05-25T07:52:41;99753.78;;;21.23;53.19
47785;BME280;35233;55.686;37.848;2023-05-25T07:55:07;99739.44;;;21.23;53.16
47785;BME280;35233;55.686;37.848;2023-05-25T07:57:33;99755.59;;;21.36;52.96
47785;BME280;35233;55.686;37.848;2023-05-25T07:59:59;99738.28;;;21.27;53.20
47785;BME280;35233;55.686;37.848;2023-05-25T08:02:25;99736.31;;;21.29;53.25
47785;BME280;35233;55.686;37.848;2023-05-25T08:04:51;99754.94;;;21.32;53.49
47785;BME280;35233;55.686;37.848;2023-05-25T08:07:20;99748.69;;;21.32;52.96
47785;BME280;35233;55.686;37.848;2023-05-25T08:09:46;99757.31;;;21.37;52.97
47785;BME280;35233;55.686;37.848;2023-05-25T08:12:11;99752.13;;;21.34;53.32
47785;BME280;35233;55.686;37.848;2023-05-25T08:14:37;99754.81;;;21.34;53.35
47785;BME280;35233;55.686;37.848;2023-05-25T08:17:03;99750.44;;;21.33;53.52
47785;BME280;35233;55.686;37.848;2023-05-25T08:19:29;99742.81;;;21.27;53.53
47785;BME280;35233;55.686;37.848;2023-05-25T08:21:57;99752.78;;;21.24;53.65
47785;BME280;35233;55.686;37.848;2023-05-25T08:24:22;99751.50;;;21.17;53.63
47785;BME280;35233;55.686;37.848;2023-05-25T08:26:48;99748.59;;;21.20;53.74
47785;BME280;35233;55.686;37.848;2023-05-25T08:29:13;99763.97;;;21.18;53.53
47785;BME280;35233;55.686;37.848;2023-05-25T08:31:39;99767.94;;;21.13;53.74
47785;BME280;35233;55.686;37.848;2023-05-25T08:34:08;99763.09;;;21.05;53.89
47785;BME280;35233;55.686;37.848;2023-05-25T08:36:34;99769.53;;;21.02;53.83
47785;BME280;35233;55.686;37.848;2023-05-25T08:39:00;99766.22;;;20.99;53.98
47785;BME280;35233;55.686;37.848;2023-05-25T08:41:27;99769.97;;;20.96;54.01
47785;BME280;35233;55.686;37.848;2023-05-25T08:43:54;99773.50;;;20.97;54.16
47785;BME280;35233;55.686;37.848;2023-05-25T08:46:29;99757.97;;;20.89;53.94
47785;BME280;35233;55.686;37.848;2023-05-25T08:49:11;99768.91;;;20.99;54.47
47785;BME280;35233;55.686;37.848;2023-05-25T08:51:40;99765.47;;;20.97;54.26
47785;BME280;35233;55.686;37.848;2023-05-25T08:54:12;99763.31;;;21.02;53.89
47785;BME280;35233;55.686;37.848;2023-05-25T08:56:48;99761.81;;;20.98;54.13
47785;BME280;35233;55.686;37.848;2023-05-25T09:04:44;99766.22;;;20.99;54.24
47785;BME280;35233;55.686;37.848;2023-05-25T09:07:11;99752.91;;;20.97;53.94
47785;BME280;35233;55.686;37.848;2023-05-25T09:09:38;99763.31;;;21.02;54.29
47785;BME280;35233;55.686;37.848;2023-05-25T09:12:05;99757.09;;;21.01;54.08
47785;BME280;35233;55.686;37.848;2023-05-25T09:14:34;99758.72;;;21.04;54.35
47785;BME280;35233;55.686;37.848;2023-05-25T09:17:02;99763.53;;;21.12;54.17
47785;BME280;35233;55.686;37.848;2023-05-25T09:19:28;99750.88;;;21.01;53.95
47785;BME280;35233;55.686;37.848;2023-05-25T09:21:53;99755.59;;;20.97;54.06
47785;BME280;35233;55.686;37.848;2023-05-25T09:24:19;99756.88;;;20.92;54.41
47785;BME280;35233;55.686;37.848;2023-05-25T09:26:46;99748.91;;;20.90;54.01
47785;BME280;35233;55.686;37.848;2023-05-25T09:29:14;99751.53;;;20.92;54.54
47785;BME280;35233;55.686;37.848;2023-05-25T09:31:40;99754.50;;;21.00;54.14
47785;BME280;35233;55.686;37.848;2023-05-25T09:34:13;99753.34;;;21.04;54.05
47785;BME280;35233;55.686;37.848;2023-05-25T09:36:43;99753.66;;;21.12;54.14
47785;BME280;35233;55.686;37.848;2023-05-25T09:39:09;99745.72;;;21.23;53.36
47785;BME280;35233;55.686;37.848;2023-05-25T09:41:36;99733.75;;;21.28;53.51
47785;BME280;35233;55.686;37.848;2023-05-25T09:44:04;99749.03;;;21.40;53.45
47785;BME280;35233;55.686;37.848;2023-05-25T09:46:30;99746.53;;;21.50;52.84
47785;BME280;35233;55.686;37.848;2023-05-25T09:49:00;99740.97;;;21.53;52.59
47785;BME280;35233;55.686;37.848;2023-05-25T09:51:27;99742.13;;;21.61;52.26
47785;BME280;35233;55.686;37.848;2023-05-25T09:53:54;99734.69;;;21.65;52.43
47785;BME280;35233;55.686;37.848;2023-05-25T09:56:20;99726.63;;;21.65;52.36
47785;BME280;35233;55.686;37.848;2023-05-25T09:58:48;99744.53;;;21.77;52.10
47785;BME280;35233;55.686;37.848;2023-05-25T10:01:16;99734.66;;;21.78;51.83
47785;BME280;35233;55.686;37.848;2023-05-25T10:03:46;99734.09;;;21.85;51.87
47785;BME280;35233;55.686;37.848;2023-05-25T10:06:13;99733.25;;;21.85;52.21
47785;BME280;35233;55.686;37.848;2023-05-25T10:08:42;99727.63;;;21.88;51.88
47785;BME280;35233;55.686;37.848;2023-05-25T10:11:09;99722.25;;;21.88;51.97
47785;BME280;35233;55.686;37.848;2023-05-25T10:13:36;99730.94;;;21.91;51.61
47785;BME280;35233;55.686;37.848;2023-05-25T10:16:03;99719.72;;;21.98;51.74
47785;BME280;35233;55.686;37.848;2023-05-25T10:18:31;99729.41;;;22.00;51.59
47785;BME280;35233;55.686;37.848;2023-05-25T10:21:02;99723.31;;;22.09;51.44
47785;BME280;35233;55.686;37.848;2023-05-25T10:23:34;99720.19;;;22.15;51.00
47785;BME280;35233;55.686;37.848;2023-05-25T10:26:02;99731.16;;;22.25;50.78
47785;BME280;35233;55.686;37.848;2023-05-25T10:28:36;99719.41;;;22.26;50.88
47785;BME280;35233;55.686;37.848;2023-05-25T10:31:04;99733.38;;;22.31;51.22
47785;BME280;35233;55.686;37.848;2023-05-25T10:33:31;99725.41;;;22.30;50.78
47785;BME280;35233;55.686;37.848;2023-05-25T10:35:57;99723.69;;;22.29;51.11
47785;BME280;35233;55.686;37.848;2023-05-25T10:38:24;99721.97;;;22.28;50.64
47785;BME280;35233;55.686;37.848;2023-05-25T10:40:57;99719.41;;;22.26;50.81
47785;BME280;35233;55.686;37.848;2023-05-25T10:43:24;99723.19;;;22.24;51.27
47785;BME280;35233;55.686;37.848;2023-05-25T10:45:50;99717.06;;;22.22;51.12
47785;BME280;35233;55.686;37.848;2023-05-25T10:48:16;99714.25;;;22.23;50.87
47785;BME280;35233;55.686;37.848;2023-05-25T10:50:41;99718.41;;;22.27;50.97
47785;BME280;35233;55.686;37.848;2023-05-25T10:53:13;99712.31;;;22.25;50.93
47785;BME280;35233;55.686;37.848;2023-05-25T10:58:19;99707.47;;;22.42;50.53
47785;BME280;35233;55.686;37.848;2023-05-25T11:01:07;99709.69;;;22.48;50.62
47785;BME280;35233;55.686;37.848;2023-05-25T11:06:08;99704.91;;;22.40;50.73
47785;BME280;35233;55.686;37.848;2023-05-25T11:11:16;99696.56;;;22.32;50.95
47785;BME280;35233;55.686;37.848;2023-05-25T11:13:45;99681.25;;;22.32;50.77
47785;BME280;35233;55.686;37.848;2023-05-25T11:16:36;99686.31;;;22.37;51.19
47785;BME280;35233;55.686;37.848;2023-05-25T11:19:13;99687.78;;;22.41;51.05
47785;BME280;35233;55.686;37.848;2023-05-25T11:21:40;99684.09;;;22.42;50.79
47785;BME280;35233;55.686;37.848;2023-05-25T11:24:12;99673.06;;;22.34;50.88
47785;BME280;35233;55.686;37.848;2023-05-25T11:26:54;99688.16;;;22.48;50.64
47785;BME280;35233;55.686;37.848;2023-05-25T11:29:20;99673.50;;;22.52;50.72
47785;BME280;35233;55.686;37.848;2023-05-25T11:31:55;99674.59;;;22.49;50.77
47785;BME280;35233;55.686;37.848;2023-05-25T11:34:21;99672.25;;;22.56;50.43
47785;BME280;35233;55.686;37.848;2023-05-25T11:36:52;99669.22;;;22.60;50.29
47785;BME280;35233;55.686;37.848;2023-05-25T11:39:19;99671.41;;;22.55;50.53
47785;BME280;35233;55.686;37.848;2023-05-25T11:41:48;99669.81;;;22.53;50.46
47785;BME280;35233;55.686;37.848;2023-05-25T11:44:14;99657.72;;;22.58;50.41
47785;BME280;35233;55.686;37.848;2023-05-25T11:46:40;99651.34;;;22.59;50.47
47785;BME280;35233;55.686;37.848;2023-05-25T11:49:07;99655.38;;;22.65;50.18
47785;BME280;35233;55.686;37.848;2023-05-25T11:51:34;99658.22;;;22.75;50.13
47785;BME280;35233;55.686;37.848;2023-05-25T11:54:00;99650.78;;;22.90;49.64
47785;BME280;35233;55.686;37.848;2023-05-25T11:56:31;99654.09;;;23.16;49.16
47785;BME280;35233;55.686;37.848;2023-05-25T11:58:57;99654.06;;;23.27;49.08
47785;BME280;35233;55.686;37.848;2023-05-25T12:01:23;99648.66;;;23.38;48.80
47785;BME280;35233;55.686;37.848;2023-05-25T12:03:50;99647.56;;;23.41;48.58
47785;BME280;35233;55.686;37.848;2023-05-25T12:06:31;99652.09;;;23.40;48.64
47785;BME280;35233;55.686;37.848;2023-05-25T12:08:59;99639.97;;;23.35;48.60
47785;BME280;35233;55.686;37.848;2023-05-25T12:11:35;99645.13;;;23.38;48.90
47785;BME280;35233;55.686;37.848;2023-05-25T12:14:09;99635.94;;;23.29;49.11
47785;BME280;35233;55.686;37.848;2023-05-25T12:16:36;99629.69;;;23.28;49.13
47785;BME280;35233;55.686;37.848;2023-05-25T12:19:08;99631.78;;;23.36;48.94
47785;BME280;35233;55.686;37.848;2023-05-25T12:21:37;99630.69;;;23.27;49.43
47785;BME280;35233;55.686;37.848;2023-05-25T12:24:03;99630.06;;;23.24;49.46
47785;BME280;35233;55.686;37.848;2023-05-25T12:26:30;99625.31;;;23.16;49.43
47785;BME280;35233;55.686;37.848;2023-05-25T12:31:24;99622.97;;;23.23;49.23
47785;BME280;35233;55.686;37.848;2023-05-25T12:34:12;99628.13;;;23.26;49.47
47785;BME280;35233;55.686;37.848;2023-05-25T12:36:41;99624.22;;;23.19;49.28
47785;BME280;35233;55.686;37.848;2023-05-25T12:39:07;99629.94;;;23.25;49.28
47785;BME280;35233;55.686;37.848;2023-05-25T12:41:50;99629.09;;;23.36;49.08
47785;BME280;35233;55.686;37.848;2023-05-25T12:46:50;99637.78;;;23.28;49.40
47785;BME280;35233;55.686;37.848;2023-05-25T12:51:52;99639.91;;;23.02;49.70
47785;BME280;35233;55.686;37.848;2023-05-25T12:57:05;99647.59;;;22.85;50.78
47785;BME280;35233;55.686;37.848;2023-05-25T12:59:32;99651.00;;;22.75;51.00
47785;BME280;35233;55.686;37.848;2023-05-25T13:01:58;99651.50;;;22.69;51.12
47785;BME280;35233;55.686;37.848;2023-05-25T13:04:24;99639.09;;;22.55;51.21
47785;BME280;35233;55.686;37.848;2023-05-25T13:06:51;99640.44;;;22.50;51.47
47785;BME280;35233;55.686;37.848;2023-05-25T13:09:17;99643.97;;;22.50;51.59
47785;BME280;35233;55.686;37.848;2023-05-25T13:11:42;99644.34;;;22.46;51.63
47785;BME280;35233;55.686;37.848;2023-05-25T13:14:08;99652.53;;;22.44;51.70
47785;BME280;35233;55.686;37.848;2023-05-25T13:16:34;99660.38;;;22.47;51.77
47785;BME280;35233;55.686;37.848;2023-05-25T13:19:00;99655.97;;;22.46;51.79
47785;BME280;35233;55.686;37.848;2023-05-25T13:21:25;99657.44;;;22.50;51.42
47785;BME280;35233;55.686;37.848;2023-05-25T13:23:51;99652.28;;;22.47;51.46
47785;BME280;35233;55.686;37.848;2023-05-25T13:26:17;99653.88;;;22.38;52.04